createdAt,value
2019-01-10T00:00:02.335Z,1027.53175903
2019-01-10T00:00:14.742Z,1027.53175903
2019-01-10T00:00:27.233Z,1027.53175903
2019-01-10T00:00:39.894Z,1027.53175903
2019-01-10T00:00:52.263Z,1027.53175903
2019-01-10T00:01:04.615Z,1027.53175903
2019-01-10T00:01:16.973Z,1027.53175903
2019-01-10T00:01:29.335Z,1027.53175903
2019-01-10T00:01:41.694Z,1027.53175903
2019-01-10T00:01:56.262Z,1027.53175903
2019-01-10T00:02:08.627Z,1027.59948679
2019-01-10T00:02:21.083Z,1027.59948679
2019-01-10T00:02:33.438Z,1027.59948679
2019-01-10T00:02:45.793Z,1027.59948679
2019-01-10T00:02:58.566Z,1027.59948679
2019-01-10T00:03:10.938Z,1027.59948679
2019-01-10T00:03:23.310Z,1027.59948679
2019-01-10T00:03:35.669Z,1027.59948679
2019-01-10T00:03:48.091Z,1027.59948679
2019-01-10T00:04:00.444Z,1027.59948679
2019-01-10T00:04:12.808Z,1027.59948679
2019-01-10T00:04:25.229Z,1027.59948679
2019-01-10T00:04:37.589Z,1027.59948679
2019-01-10T00:04:50.147Z,1027.59948679
2019-01-10T00:05:02.619Z,1027.70107844
2019-01-10T00:05:14.980Z,1027.70107844
2019-01-10T00:05:27.481Z,1027.70107844
2019-01-10T00:05:39.986Z,1027.70107844
2019-01-10T00:05:52.343Z,1027.70107844
2019-01-10T00:06:04.752Z,1027.56562291
2019-01-10T00:06:17.144Z,1027.56562291
2019-01-10T00:06:29.580Z,1027.56562291
2019-01-10T00:06:41.923Z,1027.56562291
2019-01-10T00:06:54.266Z,1027.56562291
2019-01-10T00:07:06.616Z,1027.59948679
2019-01-10T00:07:18.971Z,1027.59948679
2019-01-10T00:07:31.334Z,1027.59948679
2019-01-10T00:07:43.691Z,1027.59948679
2019-01-10T00:07:56.221Z,1027.59948679
2019-01-10T00:08:08.963Z,1027.63335067
2019-01-10T00:08:21.344Z,1027.63335067
2019-01-10T00:08:33.703Z,1027.63335067
2019-01-10T00:08:46.077Z,1027.63335067
2019-01-10T00:08:58.435Z,1027.63335067
2019-01-10T00:09:10.937Z,1027.59948679
2019-01-10T00:09:23.289Z,1027.59948679
2019-01-10T00:09:35.916Z,1027.59948679
2019-01-10T00:09:48.259Z,1027.59948679
2019-01-10T00:10:00.690Z,1027.59948679
2019-01-10T00:10:15.133Z,1027.70107844
2019-01-10T00:10:27.493Z,1027.70107844
2019-01-10T00:10:39.973Z,1027.70107844
2019-01-10T00:10:52.341Z,1027.70107844
2019-01-10T00:11:04.726Z,1027.63335067
2019-01-10T00:11:17.071Z,1027.63335067
2019-01-10T00:11:29.427Z,1027.63335067
2019-01-10T00:11:41.776Z,1027.63335067
2019-01-10T00:11:54.126Z,1027.63335067
2019-01-10T00:12:06.484Z,1027.70107844
2019-01-10T00:12:18.850Z,1027.70107844
2019-01-10T00:12:40.562Z,1027.70107844
2019-01-10T00:12:52.929Z,1027.70107844
2019-01-10T00:13:05.284Z,1027.70107844
2019-01-10T00:13:17.637Z,1027.70107844
2019-01-10T00:13:29.990Z,1027.70107844
2019-01-10T00:13:42.349Z,1027.70107844
2019-01-10T00:13:54.711Z,1027.70107844
2019-01-10T00:14:07.136Z,1027.73494232
2019-01-10T00:14:19.492Z,1027.73494232
2019-01-10T00:14:31.912Z,1027.73494232
2019-01-10T00:14:44.284Z,1027.73494232
2019-01-10T00:14:56.624Z,1027.73494232
2019-01-10T00:15:09.025Z,1027.70107844
2019-01-10T00:15:21.395Z,1027.70107844
2019-01-10T00:15:33.745Z,1027.70107844
2019-01-10T00:15:46.097Z,1027.70107844
2019-01-10T00:15:58.468Z,1027.70107844
2019-01-10T00:16:10.850Z,1027.7688062
2019-01-10T00:16:23.198Z,1027.7688062
2019-01-10T00:16:35.553Z,1027.7688062
2019-01-10T00:16:47.899Z,1027.7688062
2019-01-10T00:17:00.391Z,1027.7688062
2019-01-10T00:17:12.746Z,1027.73494232
2019-01-10T00:17:25.093Z,1027.73494232
2019-01-10T00:17:37.437Z,1027.73494232
2019-01-10T00:17:51.346Z,1027.73494232
2019-01-10T00:18:03.706Z,1027.66721456
2019-01-10T00:18:16.077Z,1027.66721456
2019-01-10T00:18:28.695Z,1027.66721456
2019-01-10T00:18:41.106Z,1027.66721456
2019-01-10T00:18:53.511Z,1027.66721456
2019-01-10T00:19:05.867Z,1027.73494232
2019-01-10T00:19:18.294Z,1027.73494232
2019-01-10T00:19:30.653Z,1027.73494232
2019-01-10T00:19:42.998Z,1027.73494232
2019-01-10T00:19:55.451Z,1027.73494232
2019-01-10T00:20:07.803Z,1027.80267008
2019-01-10T00:20:20.153Z,1027.80267008
2019-01-10T00:20:32.501Z,1027.80267008
2019-01-10T00:20:44.951Z,1027.80267008
2019-01-10T00:20:57.311Z,1027.80267008
2019-01-10T00:21:09.657Z,1027.7688062
2019-01-10T00:21:22.014Z,1027.7688062
2019-01-10T00:21:34.375Z,1027.7688062
2019-01-10T00:21:46.728Z,1027.7688062
2019-01-10T00:21:59.078Z,1027.7688062
2019-01-10T00:22:11.453Z,1027.83653396
2019-01-10T00:22:23.973Z,1027.83653396
2019-01-10T00:22:36.319Z,1027.83653396
2019-01-10T00:22:48.696Z,1027.83653396
2019-01-10T00:23:01.051Z,1027.83653396
2019-01-10T00:23:13.562Z,1027.83653396
2019-01-10T00:23:25.920Z,1027.83653396
2019-01-10T00:23:38.273Z,1027.83653396
2019-01-10T00:23:50.624Z,1027.83653396
2019-01-10T00:24:03.004Z,1027.7688062
2019-01-10T00:24:15.363Z,1027.7688062
2019-01-10T00:24:27.726Z,1027.7688062
2019-01-10T00:24:40.086Z,1027.7688062
2019-01-10T00:24:52.465Z,1027.7688062
2019-01-10T00:25:04.872Z,1027.80267008
2019-01-10T00:25:17.253Z,1027.80267008
2019-01-10T00:25:29.612Z,1027.80267008
2019-01-10T00:25:41.973Z,1027.80267008
2019-01-10T00:25:54.324Z,1027.80267008
2019-01-10T00:26:06.659Z,1027.87039785
2019-01-10T00:26:19.419Z,1027.87039785
2019-01-10T00:26:31.777Z,1027.87039785
2019-01-10T00:26:44.391Z,1027.87039785
2019-01-10T00:26:56.735Z,1027.87039785
2019-01-10T00:27:09.103Z,1027.83653396
2019-01-10T00:27:21.548Z,1027.83653396
2019-01-10T00:27:34.157Z,1027.83653396
2019-01-10T00:27:46.613Z,1027.83653396
2019-01-10T00:27:58.990Z,1027.83653396
2019-01-10T00:28:11.371Z,1027.93812561
2019-01-10T00:28:23.731Z,1027.93812561
2019-01-10T00:28:36.064Z,1027.93812561
2019-01-10T00:28:48.420Z,1027.93812561
2019-01-10T00:29:00.917Z,1027.93812561
2019-01-10T00:29:13.283Z,1027.87039785
2019-01-10T00:29:25.683Z,1027.87039785
2019-01-10T00:29:38.031Z,1027.87039785
2019-01-10T00:29:50.372Z,1027.87039785
2019-01-10T00:30:02.770Z,1027.83653396
2019-01-10T00:30:15.148Z,1027.83653396
2019-01-10T00:30:27.516Z,1027.83653396
2019-01-10T00:30:39.865Z,1027.83653396
2019-01-10T00:30:52.370Z,1027.83653396
2019-01-10T00:31:04.733Z,1027.90426173
2019-01-10T00:31:17.096Z,1027.90426173
2019-01-10T00:31:29.447Z,1027.90426173
2019-01-10T00:31:41.809Z,1027.90426173
2019-01-10T00:31:54.370Z,1027.90426173
2019-01-10T00:32:06.727Z,1027.90426173
2019-01-10T00:32:19.094Z,1027.90426173
2019-01-10T00:32:31.448Z,1027.90426173
2019-01-10T00:32:43.815Z,1027.90426173
2019-01-10T00:32:56.176Z,1027.90426173
2019-01-10T00:33:08.725Z,1028.00585337
2019-01-10T00:33:21.124Z,1028.00585337
2019-01-10T00:33:33.493Z,1028.00585337
2019-01-10T00:33:45.852Z,1028.00585337
2019-01-10T00:33:58.196Z,1028.00585337
2019-01-10T00:34:10.582Z,1027.97198949
2019-01-10T00:34:22.925Z,1027.97198949
2019-01-10T00:34:35.398Z,1027.97198949
2019-01-10T00:34:47.860Z,1027.97198949
2019-01-10T00:35:00.301Z,1027.97198949
2019-01-10T00:35:12.727Z,1027.80267008
2019-01-10T00:35:25.112Z,1027.80267008
2019-01-10T00:35:37.543Z,1027.80267008
2019-01-10T00:35:49.905Z,1027.80267008
2019-01-10T00:36:02.453Z,1027.90426173
2019-01-10T00:36:14.840Z,1027.90426173
2019-01-10T00:36:27.217Z,1027.90426173
2019-01-10T00:36:39.780Z,1027.90426173
2019-01-10T00:36:52.189Z,1027.90426173
2019-01-10T00:37:04.550Z,1027.90426173
2019-01-10T00:37:16.920Z,1027.90426173
2019-01-10T00:37:29.428Z,1027.90426173
2019-01-10T00:37:41.787Z,1027.90426173
2019-01-10T00:37:54.345Z,1027.90426173
2019-01-10T00:38:06.682Z,1027.87039785
2019-01-10T00:38:19.099Z,1027.87039785
2019-01-10T00:38:31.467Z,1027.87039785
2019-01-10T00:38:43.807Z,1027.87039785
2019-01-10T00:38:56.302Z,1027.87039785
2019-01-10T00:39:08.713Z,1027.93812561
2019-01-10T00:39:21.079Z,1027.93812561
2019-01-10T00:39:33.425Z,1027.93812561
2019-01-10T00:39:47.432Z,1027.93812561
2019-01-10T00:39:59.802Z,1027.93812561
2019-01-10T00:40:12.433Z,1028.07358114
2019-01-10T00:40:24.810Z,1028.07358114
2019-01-10T00:40:37.169Z,1028.07358114
2019-01-10T00:40:49.843Z,1028.07358114
2019-01-10T00:41:02.306Z,1028.07358114
2019-01-10T00:41:14.812Z,1028.07358114
2019-01-10T00:41:27.165Z,1028.07358114
2019-01-10T00:41:39.649Z,1028.07358114
2019-01-10T00:41:52.049Z,1028.07358114
2019-01-10T00:42:04.423Z,1027.87039785
2019-01-10T00:42:16.774Z,1027.87039785
2019-01-10T00:42:29.119Z,1027.87039785
2019-01-10T00:42:51.311Z,1027.87039785
2019-01-10T00:43:03.668Z,1028.00585337
2019-01-10T00:43:16.177Z,1028.00585337
2019-01-10T00:43:28.538Z,1028.00585337
2019-01-10T00:43:40.882Z,1028.00585337
2019-01-10T00:43:53.235Z,1028.00585337
2019-01-10T00:44:05.597Z,1027.93812561
2019-01-10T00:44:18.793Z,1027.93812561
2019-01-10T00:44:31.233Z,1027.93812561
2019-01-10T00:44:43.868Z,1027.93812561
2019-01-10T00:44:56.259Z,1027.93812561
2019-01-10T00:45:08.626Z,1027.87039785
2019-01-10T00:45:21.098Z,1027.87039785
2019-01-10T00:45:33.453Z,1027.87039785
2019-01-10T00:45:45.974Z,1027.87039785
2019-01-10T00:45:58.320Z,1027.87039785
2019-01-10T00:46:10.672Z,1027.97198949
2019-01-10T00:46:23.107Z,1027.97198949
2019-01-10T00:46:35.462Z,1027.97198949
2019-01-10T00:46:47.804Z,1027.97198949
2019-01-10T00:47:00.160Z,1027.97198949
2019-01-10T00:47:12.887Z,1028.00585337
2019-01-10T00:47:25.236Z,1028.00585337
2019-01-10T00:47:37.594Z,1028.00585337
2019-01-10T00:47:49.961Z,1028.00585337
2019-01-10T00:48:02.442Z,1028.00585337
2019-01-10T00:48:14.889Z,1028.00585337
2019-01-10T00:48:27.240Z,1028.00585337
2019-01-10T00:48:39.580Z,1028.00585337
2019-01-10T00:48:51.945Z,1028.00585337
2019-01-10T00:49:04.347Z,1028.1413089
2019-01-10T00:49:16.706Z,1028.1413089
2019-01-10T00:49:29.083Z,1028.1413089
2019-01-10T00:49:41.439Z,1028.1413089
2019-01-10T00:49:53.797Z,1028.1413089
2019-01-10T00:50:06.244Z,1028.17517278
2019-01-10T00:50:18.759Z,1028.17517278
2019-01-10T00:50:31.272Z,1028.17517278
2019-01-10T00:50:43.618Z,1028.17517278
2019-01-10T00:50:55.986Z,1028.17517278
2019-01-10T00:51:08.360Z,1028.10744502
2019-01-10T00:51:20.814Z,1028.10744502
2019-01-10T00:51:33.182Z,1028.10744502
2019-01-10T00:51:45.601Z,1028.10744502
2019-01-10T00:51:57.937Z,1028.10744502
2019-01-10T00:52:10.311Z,1028.10744502
2019-01-10T00:52:22.656Z,1028.10744502
2019-01-10T00:52:35.015Z,1028.10744502
2019-01-10T00:52:47.382Z,1028.10744502
2019-01-10T00:52:59.745Z,1028.10744502
2019-01-10T00:53:12.288Z,1028.07358114
2019-01-10T00:53:24.739Z,1028.07358114
2019-01-10T00:53:37.090Z,1028.07358114
2019-01-10T00:53:49.533Z,1028.07358114
2019-01-10T00:54:01.909Z,1028.10744502
2019-01-10T00:54:14.263Z,1028.10744502
2019-01-10T00:54:26.614Z,1028.10744502
2019-01-10T00:54:38.956Z,1028.10744502
2019-01-10T00:54:51.315Z,1028.10744502
2019-01-10T00:55:03.735Z,1028.10744502
2019-01-10T00:55:16.112Z,1028.10744502
2019-01-10T00:55:28.469Z,1028.10744502
2019-01-10T00:55:40.812Z,1028.10744502
2019-01-10T00:55:53.494Z,1028.10744502
2019-01-10T00:56:05.911Z,1028.17517278
2019-01-10T00:56:18.270Z,1028.17517278
2019-01-10T00:56:30.623Z,1028.17517278
2019-01-10T00:56:42.971Z,1028.17517278
2019-01-10T00:56:55.318Z,1028.17517278
2019-01-10T00:57:07.667Z,1028.20903666
2019-01-10T00:57:20.054Z,1028.20903666
2019-01-10T00:57:32.570Z,1028.20903666
2019-01-10T00:57:44.913Z,1028.20903666
2019-01-10T00:57:57.275Z,1028.20903666
2019-01-10T00:58:09.618Z,1028.20903666
2019-01-10T00:58:21.983Z,1028.20903666
2019-01-10T00:58:34.357Z,1028.20903666
2019-01-10T00:58:46.739Z,1028.20903666
2019-01-10T00:58:59.085Z,1028.20903666
2019-01-10T00:59:11.447Z,1028.17517278
2019-01-10T00:59:23.835Z,1028.17517278
2019-01-10T00:59:36.187Z,1028.17517278
2019-01-10T00:59:48.557Z,1028.17517278
2019-01-10T01:00:00.918Z,1028.17517278
2019-01-10T01:00:13.307Z,1028.24290054
2019-01-10T01:00:25.904Z,1028.24290054
2019-01-10T01:00:38.263Z,1028.24290054
2019-01-10T01:00:50.754Z,1028.24290054
2019-01-10T01:01:03.112Z,1028.31062831
2019-01-10T01:01:15.545Z,1028.31062831
2019-01-10T01:01:28.009Z,1028.31062831
2019-01-10T01:01:40.373Z,1028.31062831
2019-01-10T01:01:52.769Z,1028.31062831
2019-01-10T01:02:05.132Z,1028.24290054
2019-01-10T01:02:17.483Z,1028.24290054
2019-01-10T01:02:29.882Z,1028.24290054
2019-01-10T01:02:42.349Z,1028.24290054
2019-01-10T01:02:54.706Z,1028.24290054
2019-01-10T01:03:07.219Z,1028.27676442
2019-01-10T01:03:19.580Z,1028.27676442
2019-01-10T01:03:31.967Z,1028.27676442
2019-01-10T01:03:44.344Z,1028.27676442
2019-01-10T01:03:56.706Z,1028.27676442
2019-01-10T01:04:09.092Z,1028.20903666
2019-01-10T01:04:21.464Z,1028.20903666
2019-01-10T01:04:33.849Z,1028.20903666
2019-01-10T01:04:46.219Z,1028.20903666
2019-01-10T01:04:58.816Z,1028.20903666
2019-01-10T01:05:11.176Z,1028.34449219
2019-01-10T01:05:23.705Z,1028.34449219
2019-01-10T01:05:36.172Z,1028.34449219
2019-01-10T01:05:48.535Z,1028.34449219
2019-01-10T01:06:00.880Z,1028.34449219
2019-01-10T01:06:13.219Z,1028.24290054
2019-01-10T01:06:27.128Z,1028.24290054
2019-01-10T01:06:39.484Z,1028.24290054
2019-01-10T01:06:51.942Z,1028.24290054
2019-01-10T01:07:04.278Z,1028.24290054
2019-01-10T01:07:16.642Z,1028.24290054
2019-01-10T01:07:29.003Z,1028.24290054
2019-01-10T01:07:41.349Z,1028.24290054
2019-01-10T01:07:53.911Z,1028.24290054
2019-01-10T01:08:06.273Z,1028.34449219
2019-01-10T01:08:18.634Z,1028.34449219
2019-01-10T01:08:31.004Z,1028.34449219
2019-01-10T01:08:43.368Z,1028.34449219
2019-01-10T01:08:55.739Z,1028.34449219
2019-01-10T01:09:08.125Z,1028.34449219
2019-01-10T01:09:20.603Z,1028.34449219
2019-01-10T01:09:33.047Z,1028.34449219
2019-01-10T01:09:45.541Z,1028.34449219
2019-01-10T01:09:57.890Z,1028.34449219
2019-01-10T01:10:10.299Z,1028.34449219
2019-01-10T01:10:22.665Z,1028.34449219
2019-01-10T01:10:35.040Z,1028.34449219
2019-01-10T01:10:47.383Z,1028.34449219
2019-01-10T01:10:59.752Z,1028.34449219
2019-01-10T01:11:12.119Z,1028.34449219
2019-01-10T01:11:24.476Z,1028.34449219
2019-01-10T01:11:36.834Z,1028.34449219
2019-01-10T01:11:49.189Z,1028.34449219
2019-01-10T01:12:03.799Z,1028.37835607
2019-01-10T01:12:16.178Z,1028.37835607
2019-01-10T01:12:28.552Z,1028.37835607
2019-01-10T01:12:40.907Z,1028.37835607
2019-01-10T01:13:02.865Z,1028.34449219
2019-01-10T01:13:15.241Z,1028.34449219
2019-01-10T01:13:27.593Z,1028.34449219
2019-01-10T01:13:39.944Z,1028.34449219
2019-01-10T01:13:52.310Z,1028.34449219
2019-01-10T01:14:04.677Z,1028.41221995
2019-01-10T01:14:17.038Z,1028.41221995
2019-01-10T01:14:29.393Z,1028.41221995
2019-01-10T01:14:41.758Z,1028.41221995
2019-01-10T01:14:54.158Z,1028.41221995
2019-01-10T01:15:06.531Z,1028.47994771
2019-01-10T01:15:18.873Z,1028.47994771
2019-01-10T01:15:31.235Z,1028.47994771
2019-01-10T01:15:43.574Z,1028.47994771
2019-01-10T01:15:56.090Z,1028.47994771
2019-01-10T01:16:08.436Z,1028.44608383
2019-01-10T01:16:20.883Z,1028.44608383
2019-01-10T01:16:33.348Z,1028.44608383
2019-01-10T01:16:45.709Z,1028.44608383
2019-01-10T01:16:58.265Z,1028.44608383
2019-01-10T01:17:10.668Z,1028.44608383
2019-01-10T01:17:24.935Z,1028.44608383
2019-01-10T01:17:37.404Z,1028.44608383
2019-01-10T01:17:49.756Z,1028.44608383
2019-01-10T01:18:02.118Z,1028.58153936
2019-01-10T01:18:14.508Z,1028.58153936
2019-01-10T01:18:26.861Z,1028.58153936
2019-01-10T01:18:39.451Z,1028.58153936
2019-01-10T01:18:51.820Z,1028.58153936
2019-01-10T01:19:04.170Z,1028.54767548
2019-01-10T01:19:16.539Z,1028.54767548
2019-01-10T01:19:28.904Z,1028.54767548
2019-01-10T01:19:41.255Z,1028.54767548
2019-01-10T01:19:53.597Z,1028.54767548
2019-01-10T01:20:05.952Z,1028.58153936
2019-01-10T01:20:18.318Z,1028.58153936
2019-01-10T01:20:30.687Z,1028.58153936
2019-01-10T01:20:43.038Z,1028.58153936
2019-01-10T01:20:55.395Z,1028.58153936
2019-01-10T01:21:07.764Z,1028.54767548
2019-01-10T01:21:20.150Z,1028.54767548
2019-01-10T01:21:32.533Z,1028.54767548
2019-01-10T01:21:44.891Z,1028.54767548
2019-01-10T01:21:57.242Z,1028.54767548
2019-01-10T01:22:09.591Z,1028.5138116
2019-01-10T01:22:21.946Z,1028.5138116
2019-01-10T01:22:34.294Z,1028.5138116
2019-01-10T01:22:46.688Z,1028.5138116
2019-01-10T01:22:59.108Z,1028.5138116
2019-01-10T01:23:11.561Z,1028.5138116
2019-01-10T01:23:23.932Z,1028.5138116
2019-01-10T01:23:36.287Z,1028.5138116
2019-01-10T01:23:48.657Z,1028.5138116
2019-01-10T01:24:01.041Z,1028.5138116
2019-01-10T01:24:15.357Z,1028.54767548
2019-01-10T01:24:27.743Z,1028.54767548
2019-01-10T01:24:40.093Z,1028.54767548
2019-01-10T01:24:52.446Z,1028.54767548
2019-01-10T01:25:04.826Z,1028.58153936
2019-01-10T01:25:17.286Z,1028.58153936
2019-01-10T01:25:29.670Z,1028.58153936
2019-01-10T01:25:42.034Z,1028.58153936
2019-01-10T01:25:54.503Z,1028.58153936
2019-01-10T01:26:06.948Z,1028.58153936
2019-01-10T01:26:19.311Z,1028.58153936
2019-01-10T01:26:31.678Z,1028.58153936
2019-01-10T01:26:44.047Z,1028.58153936
2019-01-10T01:26:56.400Z,1028.58153936
2019-01-10T01:27:08.846Z,1028.58153936
2019-01-10T01:27:21.194Z,1028.58153936
2019-01-10T01:27:33.830Z,1028.58153936
2019-01-10T01:27:46.194Z,1028.58153936
2019-01-10T01:27:58.580Z,1028.58153936
2019-01-10T01:28:10.961Z,1028.683131
2019-01-10T01:28:23.310Z,1028.683131
2019-01-10T01:28:35.669Z,1028.683131
2019-01-10T01:28:48.129Z,1028.683131
2019-01-10T01:29:00.495Z,1028.683131
2019-01-10T01:29:12.880Z,1028.64926712
2019-01-10T01:29:27.479Z,1028.64926712
2019-01-10T01:29:39.868Z,1028.64926712
2019-01-10T01:29:52.239Z,1028.64926712
2019-01-10T01:30:04.803Z,1028.683131
2019-01-10T01:30:17.184Z,1028.683131
2019-01-10T01:30:29.559Z,1028.683131
2019-01-10T01:30:41.964Z,1028.683131
2019-01-10T01:30:54.404Z,1028.683131
2019-01-10T01:31:06.767Z,1028.71699489
2019-01-10T01:31:19.123Z,1028.71699489
2019-01-10T01:31:31.476Z,1028.71699489
2019-01-10T01:31:43.839Z,1028.71699489
2019-01-10T01:31:56.374Z,1028.71699489
2019-01-10T01:32:08.721Z,1028.78472265
2019-01-10T01:32:21.193Z,1028.78472265
2019-01-10T01:32:33.550Z,1028.78472265
2019-01-10T01:32:45.923Z,1028.78472265
2019-01-10T01:32:58.272Z,1028.78472265
2019-01-10T01:33:10.647Z,1028.71699489
2019-01-10T01:33:23.038Z,1028.71699489
2019-01-10T01:33:35.397Z,1028.71699489
2019-01-10T01:33:47.751Z,1028.71699489
2019-01-10T01:34:00.137Z,1028.71699489
2019-01-10T01:34:12.487Z,1028.71699489
2019-01-10T01:34:24.854Z,1028.71699489
2019-01-10T01:34:37.195Z,1028.71699489
2019-01-10T01:34:49.559Z,1028.71699489
2019-01-10T01:35:01.905Z,1028.683131
2019-01-10T01:35:14.269Z,1028.683131
2019-01-10T01:35:28.417Z,1028.683131
2019-01-10T01:35:40.775Z,1028.683131
2019-01-10T01:35:53.354Z,1028.683131
2019-01-10T01:36:05.892Z,1028.71699489
2019-01-10T01:36:18.242Z,1028.71699489
2019-01-10T01:36:30.595Z,1028.71699489
2019-01-10T01:36:43.103Z,1028.71699489
2019-01-10T01:36:55.508Z,1028.71699489
2019-01-10T01:37:07.901Z,1028.75085877
2019-01-10T01:37:20.592Z,1028.75085877
2019-01-10T01:37:32.950Z,1028.75085877
2019-01-10T01:37:45.307Z,1028.75085877
2019-01-10T01:37:57.796Z,1028.75085877
2019-01-10T01:38:10.163Z,1028.71699489
2019-01-10T01:38:22.685Z,1028.71699489
2019-01-10T01:38:35.040Z,1028.71699489
2019-01-10T01:38:47.392Z,1028.71699489
2019-01-10T01:38:59.876Z,1028.71699489
2019-01-10T01:39:12.242Z,1028.75085877
2019-01-10T01:39:24.612Z,1028.75085877
2019-01-10T01:39:36.959Z,1028.75085877
2019-01-10T01:39:49.315Z,1028.75085877
2019-01-10T01:40:01.705Z,1028.78472265
2019-01-10T01:40:14.198Z,1028.78472265
2019-01-10T01:40:26.564Z,1028.78472265
2019-01-10T01:40:38.898Z,1028.78472265
2019-01-10T01:40:51.368Z,1028.78472265
2019-01-10T01:41:05.419Z,1028.78472265
2019-01-10T01:41:17.945Z,1028.78472265
2019-01-10T01:41:30.303Z,1028.78472265
2019-01-10T01:41:42.661Z,1028.78472265
2019-01-10T01:41:54.998Z,1028.78472265
2019-01-10T01:42:07.367Z,1028.85245041
2019-01-10T01:42:19.728Z,1028.85245041
2019-01-10T01:42:32.075Z,1028.85245041
2019-01-10T01:42:44.445Z,1028.85245041
2019-01-10T01:42:56.800Z,1028.85245041
2019-01-10T01:43:18.604Z,1028.88631429
2019-01-10T01:43:30.963Z,1028.88631429
2019-01-10T01:43:43.307Z,1028.88631429
2019-01-10T01:43:55.652Z,1028.88631429
2019-01-10T01:44:08.006Z,1028.78472265
2019-01-10T01:44:20.453Z,1028.78472265
2019-01-10T01:44:32.916Z,1028.78472265
2019-01-10T01:44:45.598Z,1028.78472265
2019-01-10T01:44:58.065Z,1028.78472265
2019-01-10T01:45:10.424Z,1028.88631429
2019-01-10T01:45:22.793Z,1028.88631429
2019-01-10T01:45:35.147Z,1028.88631429
2019-01-10T01:45:47.513Z,1028.88631429
2019-01-10T01:45:59.872Z,1028.88631429
2019-01-10T01:46:14.576Z,1028.88631429
2019-01-10T01:46:26.947Z,1028.88631429
2019-01-10T01:46:39.309Z,1028.88631429
2019-01-10T01:46:51.678Z,1028.88631429
2019-01-10T01:47:04.294Z,1028.88631429
2019-01-10T01:47:16.648Z,1028.88631429
2019-01-10T01:47:28.981Z,1028.88631429
2019-01-10T01:47:41.342Z,1028.88631429
2019-01-10T01:47:53.712Z,1028.88631429
2019-01-10T01:48:06.069Z,1028.92017817
2019-01-10T01:48:18.528Z,1028.92017817
2019-01-10T01:48:30.874Z,1028.92017817
2019-01-10T01:48:43.250Z,1028.92017817
2019-01-10T01:48:55.633Z,1028.92017817
2019-01-10T01:49:08.012Z,1028.92017817
2019-01-10T01:49:20.388Z,1028.92017817
2019-01-10T01:49:32.828Z,1028.92017817
2019-01-10T01:49:45.191Z,1028.92017817
2019-01-10T01:49:57.560Z,1028.92017817
2019-01-10T01:50:09.906Z,1028.98790594
2019-01-10T01:50:22.428Z,1028.98790594
2019-01-10T01:50:34.856Z,1028.98790594
2019-01-10T01:50:47.219Z,1028.98790594
2019-01-10T01:50:59.567Z,1028.98790594
2019-01-10T01:51:11.916Z,1028.98790594
2019-01-10T01:51:24.262Z,1028.98790594
2019-01-10T01:51:36.635Z,1028.98790594
2019-01-10T01:51:49.002Z,1028.98790594
2019-01-10T01:52:01.360Z,1028.95404206
2019-01-10T01:52:13.718Z,1028.95404206
2019-01-10T01:52:26.104Z,1028.95404206
2019-01-10T01:52:38.470Z,1028.95404206
2019-01-10T01:52:50.933Z,1028.95404206
2019-01-10T01:53:05.027Z,1029.02176982
2019-01-10T01:53:17.382Z,1029.02176982
2019-01-10T01:53:29.720Z,1029.02176982
2019-01-10T01:53:42.094Z,1029.02176982
2019-01-10T01:53:54.509Z,1029.02176982
2019-01-10T01:54:06.970Z,1029.02176982
2019-01-10T01:54:19.306Z,1029.02176982
2019-01-10T01:54:31.659Z,1029.02176982
2019-01-10T01:54:44.026Z,1029.02176982
2019-01-10T01:54:56.395Z,1029.02176982
2019-01-10T01:55:08.773Z,1029.0556337
2019-01-10T01:55:21.143Z,1029.0556337
2019-01-10T01:55:33.494Z,1029.0556337
2019-01-10T01:55:45.930Z,1029.0556337
2019-01-10T01:55:58.280Z,1029.0556337
2019-01-10T01:56:10.654Z,1029.12336146
2019-01-10T01:56:23.094Z,1029.12336146
2019-01-10T01:56:35.528Z,1029.12336146
2019-01-10T01:56:47.876Z,1029.12336146
2019-01-10T01:57:00.254Z,1029.12336146
2019-01-10T01:57:12.616Z,1029.08949758
2019-01-10T01:57:25.062Z,1029.08949758
2019-01-10T01:57:37.408Z,1029.08949758
2019-01-10T01:57:49.868Z,1029.08949758
2019-01-10T01:58:02.229Z,1029.12336146
2019-01-10T01:58:14.588Z,1029.12336146
2019-01-10T01:58:26.942Z,1029.12336146
2019-01-10T01:58:39.288Z,1029.12336146
2019-01-10T01:58:51.643Z,1029.12336146
2019-01-10T01:59:05.533Z,1029.12336146
2019-01-10T01:59:17.892Z,1029.12336146
2019-01-10T01:59:30.238Z,1029.12336146
2019-01-10T01:59:42.577Z,1029.12336146
2019-01-10T01:59:54.934Z,1029.12336146
2019-01-10T02:00:07.304Z,1029.22495311
2019-01-10T02:00:19.883Z,1029.22495311
2019-01-10T02:00:32.424Z,1029.22495311
2019-01-10T02:00:44.814Z,1029.22495311
2019-01-10T02:00:57.241Z,1029.22495311
2019-01-10T02:01:09.620Z,1029.22495311
2019-01-10T02:01:22.051Z,1029.22495311
2019-01-10T02:01:34.415Z,1029.22495311
2019-01-10T02:01:46.762Z,1029.22495311
2019-01-10T02:01:59.142Z,1029.22495311
2019-01-10T02:02:11.505Z,1029.15722535
2019-01-10T02:02:23.912Z,1029.15722535
2019-01-10T02:02:36.253Z,1029.15722535
2019-01-10T02:02:48.663Z,1029.15722535
2019-01-10T02:03:01.172Z,1029.15722535
2019-01-10T02:03:13.545Z,1029.22495311
2019-01-10T02:03:25.899Z,1029.22495311
2019-01-10T02:03:38.343Z,1029.22495311
2019-01-10T02:03:50.728Z,1029.22495311
2019-01-10T02:04:03.092Z,1029.22495311
2019-01-10T02:04:15.471Z,1029.22495311
2019-01-10T02:04:27.841Z,1029.22495311
2019-01-10T02:04:40.181Z,1029.22495311
2019-01-10T02:04:52.770Z,1029.22495311
2019-01-10T02:05:05.163Z,1029.19108923
2019-01-10T02:05:17.714Z,1029.19108923
2019-01-10T02:05:30.213Z,1029.19108923
2019-01-10T02:05:42.560Z,1029.19108923
2019-01-10T02:05:55.028Z,1029.19108923
2019-01-10T02:06:07.414Z,1029.22495311
2019-01-10T02:06:19.767Z,1029.22495311
2019-01-10T02:06:32.119Z,1029.22495311
2019-01-10T02:06:44.470Z,1029.22495311
2019-01-10T02:06:56.860Z,1029.22495311
2019-01-10T02:07:09.311Z,1029.22495311
2019-01-10T02:07:21.663Z,1029.22495311
2019-01-10T02:07:34.017Z,1029.22495311
2019-01-10T02:07:46.467Z,1029.22495311
2019-01-10T02:07:58.854Z,1029.22495311
2019-01-10T02:08:11.269Z,1029.32654475